sensor_id;sensor_type;location;lat;lon;timestamp;P1;durP1;ratioP1;P2;durP2;ratioP2
249;SDS011;109;19.806;-70.704;2023-03-25T00:01:05;25.70;;;4.97;;
249;SDS011;109;19.806;-70.704;2023-03-25T00:03:39;16.10;;;4.63;;
249;SDS011;109;19.806;-70.704;2023-03-25T00:06:07;14.07;;;4.53;;
249;SDS011;109;19.806;-70.704;2023-03-25T00:08:35;23.93;;;5.20;;
249;SDS011;109;19.806;-70.704;2023-03-25T00:11:03;14.40;;;4.67;;
249;SDS011;109;19.806;-70.704;2023-03-25T00:13:31;10.50;;;4.10;;
249;SDS011;109;19.806;-70.704;2023-03-25T00:15:58;18.50;;;4.90;;
249;SDS011;109;19.806;-70.704;2023-03-25T00:18:26;12.77;;;4.63;;
249;SDS011;109;19.806;-70.704;2023-03-25T00:20:58;22.40;;;5.10;;
249;SDS011;109;19.806;-70.704;2023-03-25T00:23:27;20.53;;;4.40;;
249;SDS011;109;19.806;-70.704;2023-03-25T00:25:54;14.93;;;4.97;;
249;SDS011;109;19.806;-70.704;2023-03-25T00:28:26;13.23;;;4.70;;
249;SDS011;109;19.806;-70.704;2023-03-25T00:30:59;13.73;;;4.67;;
249;SDS011;109;19.806;-70.704;2023-03-25T00:33:27;13.93;;;4.20;;
249;SDS011;109;19.806;-70.704;2023-03-25T00:35:54;15.33;;;5.60;;
249;SDS011;109;19.806;-70.704;2023-03-25T00:38:31;20.33;;;5.80;;
249;SDS011;109;19.806;-70.704;2023-03-25T00:41:13;16.53;;;4.87;;
249;SDS011;109;19.806;-70.704;2023-03-25T00:43:57;11.57;;;4.23;;
249;SDS011;109;19.806;-70.704;2023-03-25T00:46:46;16.07;;;4.60;;
249;SDS011;109;19.806;-70.704;2023-03-25T00:49:20;11.83;;;4.50;;
249;SDS011;109;19.806;-70.704;2023-03-25T00:51:52;10.67;;;4.67;;
249;SDS011;109;19.806;-70.704;2023-03-25T00:54:26;19.30;;;4.97;;
249;SDS011;109;19.806;-70.704;2023-03-25T00:56:53;14.93;;;4.70;;
249;SDS011;109;19.806;-70.704;2023-03-25T00:59:26;19.40;;;5.07;;
249;SDS011;109;19.806;-70.704;2023-03-25T01:01:52;14.23;;;4.50;;
249;SDS011;109;19.806;-70.704;2023-03-25T01:04:27;15.00;;;4.67;;
249;SDS011;109;19.806;-70.704;2023-03-25T01:06:54;14.27;;;4.70;;
249;SDS011;109;19.806;-70.704;2023-03-25T01:09:27;22.63;;;6.50;;
249;SDS011;109;19.806;-70.704;2023-03-25T01:11:54;16.53;;;5.60;;
249;SDS011;109;19.806;-70.704;2023-03-25T01:14:27;13.50;;;4.87;;
249;SDS011;109;19.806;-70.704;2023-03-25T01:16:53;15.63;;;4.57;;
249;SDS011;109;19.806;-70.704;2023-03-25T01:19:28;16.53;;;4.47;;
249;SDS011;109;19.806;-70.704;2023-03-25T01:21:55;14.43;;;4.70;;
249;SDS011;109;19.806;-70.704;2023-03-25T01:24:29;12.50;;;4.80;;
249;SDS011;109;19.806;-70.704;2023-03-25T01:26:56;12.43;;;4.73;;
249;SDS011;109;19.806;-70.704;2023-03-25T01:29:36;12.33;;;4.10;;
249;SDS011;109;19.806;-70.704;2023-03-25T01:32:10;7.30;;;4.90;;
249;SDS011;109;19.806;-70.704;2023-03-25T01:34:36;13.93;;;4.90;;
249;SDS011;109;19.806;-70.704;2023-03-25T01:37:09;10.20;;;4.43;;
249;SDS011;109;19.806;-70.704;2023-03-25T01:39:35;27.27;;;5.13;;
249;SDS011;109;19.806;-70.704;2023-03-25T01:42:09;12.13;;;4.80;;
249;SDS011;109;19.806;-70.704;2023-03-25T01:45:30;17.20;;;4.67;;
249;SDS011;109;19.806;-70.704;2023-03-25T01:48:07;17.70;;;5.37;;
249;SDS011;109;19.806;-70.704;2023-03-25T01:50:46;24.90;;;5.10;;
249;SDS011;109;19.806;-70.704;2023-03-25T01:53:24;16.33;;;5.50;;
249;SDS011;109;19.806;-70.704;2023-03-25T01:56:01;12.23;;;5.80;;
249;SDS011;109;19.806;-70.704;2023-03-25T01:58:38;13.13;;;5.17;;
249;SDS011;109;19.806;-70.704;2023-03-25T02:01:06;18.70;;;5.90;;
249;SDS011;109;19.806;-70.704;2023-03-25T02:03:44;14.43;;;5.50;;
249;SDS011;109;19.806;-70.704;2023-03-25T02:07:04;27.03;;;5.87;;
249;SDS011;109;19.806;-70.704;2023-03-25T02:09:27;16.07;;;4.80;;
249;SDS011;109;19.806;-70.704;2023-03-25T02:11:54;12.30;;;4.73;;
249;SDS011;109;19.806;-70.704;2023-03-25T02:14:28;14.30;;;4.97;;
249;SDS011;109;19.806;-70.704;2023-03-25T02:29:13;15.33;;;4.77;;
249;SDS011;109;19.806;-70.704;2023-03-25T02:31:54;13.27;;;4.80;;
249;SDS011;109;19.806;-70.704;2023-03-25T02:35:00;13.60;;;4.00;;
249;SDS011;109;19.806;-70.704;2023-03-25T02:38:06;12.33;;;4.03;;
249;SDS011;109;19.806;-70.704;2023-03-25T02:43:50;18.23;;;4.47;;
249;SDS011;109;19.806;-70.704;2023-03-25T02:46:48;14.70;;;4.37;;
249;SDS011;109;19.806;-70.704;2023-03-25T02:49:29;11.93;;;3.77;;
249;SDS011;109;19.806;-70.704;2023-03-25T02:52:24;13.10;;;3.43;;
249;SDS011;109;19.806;-70.704;2023-03-25T02:55:02;18.93;;;4.27;;
249;SDS011;109;19.806;-70.704;2023-03-25T02:57:42;16.57;;;4.13;;
249;SDS011;109;19.806;-70.704;2023-03-25T03:00:11;13.33;;;3.70;;
249;SDS011;109;19.806;-70.704;2023-03-25T03:02:54;12.47;;;4.03;;
249;SDS011;109;19.806;-70.704;2023-03-25T03:05:33;15.63;;;4.20;;
249;SDS011;109;19.806;-70.704;2023-03-25T03:14:21;11.10;;;3.33;;
249;SDS011;109;19.806;-70.704;2023-03-25T03:17:07;20.40;;;4.57;;
249;SDS011;109;19.806;-70.704;2023-03-25T03:20:17;16.23;;;3.80;;
249;SDS011;109;19.806;-70.704;2023-03-25T03:23:05;14.37;;;3.83;;
249;SDS011;109;19.806;-70.704;2023-03-25T03:25:45;8.17;;;3.30;;
249;SDS011;109;19.806;-70.704;2023-03-25T03:28:31;8.83;;;3.60;;
249;SDS011;109;19.806;-70.704;2023-03-25T03:31:16;21.70;;;4.13;;
249;SDS011;109;19.806;-70.704;2023-03-25T03:34:00;15.90;;;3.30;;
249;SDS011;109;19.806;-70.704;2023-03-25T03:36:43;11.93;;;3.37;;
249;SDS011;109;19.806;-70.704;2023-03-25T03:39:22;8.67;;;3.43;;
249;SDS011;109;19.806;-70.704;2023-03-25T03:42:01;9.30;;;3.50;;
249;SDS011;109;19.806;-70.704;2023-03-25T03:45:05;11.73;;;4.00;;
249;SDS011;109;19.806;-70.704;2023-03-25T03:47:44;13.60;;;3.60;;
249;SDS011;109;19.806;-70.704;2023-03-25T03:50:23;14.27;;;3.20;;
249;SDS011;109;19.806;-70.704;2023-03-25T03:53:06;9.27;;;3.00;;
249;SDS011;109;19.806;-70.704;2023-03-25T03:55:41;10.23;;;3.60;;
249;SDS011;109;19.806;-70.704;2023-03-25T03:58:32;14.20;;;3.77;;
249;SDS011;109;19.806;-70.704;2023-03-25T04:04:00;11.43;;;3.80;;
249;SDS011;109;19.806;-70.704;2023-03-25T04:12:50;11.60;;;3.90;;
249;SDS011;109;19.806;-70.704;2023-03-25T04:15:25;9.67;;;3.30;;
249;SDS011;109;19.806;-70.704;2023-03-25T04:17:52;11.87;;;3.53;;
249;SDS011;109;19.806;-70.704;2023-03-25T04:20:25;12.17;;;3.00;;
249;SDS011;109;19.806;-70.704;2023-03-25T04:22:54;11.17;;;3.80;;
249;SDS011;109;19.806;-70.704;2023-03-25T04:25:27;10.20;;;3.33;;
249;SDS011;109;19.806;-70.704;2023-03-25T04:27:55;13.70;;;3.67;;
249;SDS011;109;19.806;-70.704;2023-03-25T04:30:30;11.27;;;3.20;;
249;SDS011;109;19.806;-70.704;2023-03-25T04:32:56;12.33;;;3.40;;
249;SDS011;109;19.806;-70.704;2023-03-25T04:35:31;15.10;;;3.73;;
249;SDS011;109;19.806;-70.704;2023-03-25T04:37:58;10.33;;;4.13;;
249;SDS011;109;19.806;-70.704;2023-03-25T04:40:32;19.03;;;3.83;;
249;SDS011;109;19.806;-70.704;2023-03-25T04:42:59;17.43;;;3.30;;
249;SDS011;109;19.806;-70.704;2023-03-25T04:45:32;18.23;;;3.50;;
249;SDS011;109;19.806;-70.704;2023-03-25T04:48:21;12.17;;;3.57;;
249;SDS011;109;19.806;-70.704;2023-03-25T04:50:57;15.53;;;4.03;;
249;SDS011;109;19.806;-70.704;2023-03-25T04:53:33;10.20;;;3.70;;
249;SDS011;109;19.806;-70.704;2023-03-25T04:56:09;11.87;;;3.83;;
249;SDS011;109;19.806;-70.704;2023-03-25T04:58:47;10.50;;;3.57;;
249;SDS011;109;19.806;-70.704;2023-03-25T05:01:23;13.97;;;4.23;;
249;SDS011;109;19.806;-70.704;2023-03-25T05:04:03;10.17;;;3.40;;
249;SDS011;109;19.806;-70.704;2023-03-25T05:06:31;10.17;;;3.40;;
249;SDS011;109;19.806;-70.704;2023-03-25T05:09:05;14.13;;;3.73;;
249;SDS011;109;19.806;-70.704;2023-03-25T05:11:34;11.73;;;3.20;;
249;SDS011;109;19.806;-70.704;2023-03-25T05:14:10;16.80;;;4.00;;
249;SDS011;109;19.806;-70.704;2023-03-25T05:16:38;11.63;;;3.30;;
249;SDS011;109;19.806;-70.704;2023-03-25T05:19:11;12.27;;;3.40;;
249;SDS011;109;19.806;-70.704;2023-03-25T05:21:39;12.13;;;3.47;;
249;SDS011;109;19.806;-70.704;2023-03-25T05:24:13;17.07;;;3.50;;
249;SDS011;109;19.806;-70.704;2023-03-25T05:26:40;13.17;;;3.27;;
249;SDS011;109;19.806;-70.704;2023-03-25T05:29:13;9.73;;;2.93;;
249;SDS011;109;19.806;-70.704;2023-03-25T05:31:40;14.50;;;3.63;;
249;SDS011;109;19.806;-70.704;2023-03-25T05:34:16;11.40;;;3.40;;
249;SDS011;109;19.806;-70.704;2023-03-25T05:36:43;12.50;;;3.87;;
249;SDS011;109;19.806;-70.704;2023-03-25T05:39:23;14.57;;;5.30;;
249;SDS011;109;19.806;-70.704;2023-03-25T05:41:57;17.97;;;3.83;;
249;SDS011;109;19.806;-70.704;2023-03-25T05:44:34;11.07;;;3.50;;
249;SDS011;109;19.806;-70.704;2023-03-25T05:47:28;12.60;;;3.37;;
249;SDS011;109;19.806;-70.704;2023-03-25T05:50:02;6.43;;;3.17;;
249;SDS011;109;19.806;-70.704;2023-03-25T05:52:29;10.70;;;3.73;;
249;SDS011;109;19.806;-70.704;2023-03-25T05:55:02;7.53;;;3.43;;
249;SDS011;109;19.806;-70.704;2023-03-25T05:57:29;14.00;;;3.70;;
249;SDS011;109;19.806;-70.704;2023-03-25T06:00:02;11.20;;;3.43;;
249;SDS011;109;19.806;-70.704;2023-03-25T06:02:39;8.50;;;3.53;;
249;SDS011;109;19.806;-70.704;2023-03-25T06:05:08;10.53;;;3.70;;
249;SDS011;109;19.806;-70.704;2023-03-25T06:07:45;13.43;;;3.13;;
249;SDS011;109;19.806;-70.704;2023-03-25T06:10:12;11.73;;;2.93;;
249;SDS011;109;19.806;-70.704;2023-03-25T06:12:49;10.77;;;3.50;;
249;SDS011;109;19.806;-70.704;2023-03-25T06:15:17;18.97;;;3.67;;
249;SDS011;109;19.806;-70.704;2023-03-25T06:17:52;13.10;;;3.70;;
249;SDS011;109;19.806;-70.704;2023-03-25T06:20:19;16.63;;;3.60;;
249;SDS011;109;19.806;-70.704;2023-03-25T06:23:00;15.23;;;3.90;;
249;SDS011;109;19.806;-70.704;2023-03-25T06:25:33;8.90;;;3.27;;
249;SDS011;109;19.806;-70.704;2023-03-25T06:27:59;10.30;;;3.63;;
249;SDS011;109;19.806;-70.704;2023-03-25T06:30:34;12.37;;;4.13;;
249;SDS011;109;19.806;-70.704;2023-03-25T06:33:01;12.27;;;3.90;;
249;SDS011;109;19.806;-70.704;2023-03-25T06:35:37;11.00;;;3.50;;
249;SDS011;109;19.806;-70.704;2023-03-25T06:38:04;14.30;;;3.53;;
249;SDS011;109;19.806;-70.704;2023-03-25T06:41:00;11.33;;;3.60;;
249;SDS011;109;19.806;-70.704;2023-03-25T06:43:33;7.77;;;3.20;;
249;SDS011;109;19.806;-70.704;2023-03-25T06:46:32;8.50;;;3.60;;
249;SDS011;109;19.806;-70.704;2023-03-25T06:49:21;11.90;;;3.27;;
249;SDS011;109;19.806;-70.704;2023-03-25T06:51:55;20.47;;;4.23;;
249;SDS011;109;19.806;-70.704;2023-03-25T06:54:22;13.37;;;3.97;;
249;SDS011;109;19.806;-70.704;2023-03-25T06:56:56;14.23;;;4.40;;
249;SDS011;109;19.806;-70.704;2023-03-25T06:59:22;10.53;;;3.60;;
249;SDS011;109;19.806;-70.704;2023-03-25T07:01:56;11.20;;;3.60;;
249;SDS011;109;19.806;-70.704;2023-03-25T07:04:23;12.03;;;4.43;;
249;SDS011;109;19.806;-70.704;2023-03-25T07:06:56;16.20;;;3.30;;
249;SDS011;109;19.806;-70.704;2023-03-25T07:09:22;13.57;;;3.47;;
249;SDS011;109;19.806;-70.704;2023-03-25T07:12:04;11.20;;;3.60;;
249;SDS011;109;19.806;-70.704;2023-03-25T07:14:37;15.23;;;3.43;;
249;SDS011;109;19.806;-70.704;2023-03-25T07:17:03;10.40;;;3.23;;
249;SDS011;109;19.806;-70.704;2023-03-25T07:19:37;11.53;;;3.20;;
249;SDS011;109;19.806;-70.704;2023-03-25T07:22:03;12.33;;;3.70;;
249;SDS011;109;19.806;-70.704;2023-03-25T07:24:36;10.00;;;3.47;;
249;SDS011;109;19.806;-70.704;2023-03-25T07:27:02;11.17;;;3.50;;
249;SDS011;109;19.806;-70.704;2023-03-25T07:29:35;8.87;;;3.33;;
249;SDS011;109;19.806;-70.704;2023-03-25T07:32:02;13.10;;;3.20;;
249;SDS011;109;19.806;-70.704;2023-03-25T07:34:35;7.10;;;3.10;;
249;SDS011;109;19.806;-70.704;2023-03-25T07:37:02;10.87;;;3.40;;
249;SDS011;109;19.806;-70.704;2023-03-25T07:39:35;6.67;;;3.20;;
249;SDS011;109;19.806;-70.704;2023-03-25T07:42:01;10.40;;;3.47;;
249;SDS011;109;19.806;-70.704;2023-03-25T07:45:00;15.80;;;3.30;;
249;SDS011;109;19.806;-70.704;2023-03-25T07:47:42;14.83;;;3.70;;
249;SDS011;109;19.806;-70.704;2023-03-25T07:50:21;16.40;;;3.43;;
249;SDS011;109;19.806;-70.704;2023-03-25T07:52:48;15.63;;;4.40;;
249;SDS011;109;19.806;-70.704;2023-03-25T07:55:29;15.43;;;3.77;;
249;SDS011;109;19.806;-70.704;2023-03-25T07:58:02;10.57;;;3.50;;
249;SDS011;109;19.806;-70.704;2023-03-25T08:00:29;12.40;;;3.90;;
249;SDS011;109;19.806;-70.704;2023-03-25T08:03:02;11.07;;;3.43;;
249;SDS011;109;19.806;-70.704;2023-03-25T08:05:29;14.43;;;3.60;;
249;SDS011;109;19.806;-70.704;2023-03-25T08:08:04;16.07;;;4.07;;
249;SDS011;109;19.806;-70.704;2023-03-25T08:10:31;12.93;;;4.20;;
249;SDS011;109;19.806;-70.704;2023-03-25T08:13:04;11.53;;;4.23;;
249;SDS011;109;19.806;-70.704;2023-03-25T08:15:30;16.67;;;3.80;;
249;SDS011;109;19.806;-70.704;2023-03-25T08:18:04;9.90;;;3.73;;
249;SDS011;109;19.806;-70.704;2023-03-25T08:20:34;8.60;;;3.37;;
249;SDS011;109;19.806;-70.704;2023-03-25T08:23:07;9.13;;;3.20;;
249;SDS011;109;19.806;-70.704;2023-03-25T08:25:37;8.67;;;3.40;;
249;SDS011;109;19.806;-70.704;2023-03-25T08:28:14;15.40;;;3.67;;
249;SDS011;109;19.806;-70.704;2023-03-25T08:30:54;14.70;;;4.43;;
249;SDS011;109;19.806;-70.704;2023-03-25T08:33:21;10.50;;;3.47;;
249;SDS011;109;19.806;-70.704;2023-03-25T08:36:06;12.07;;;3.27;;
249;SDS011;109;19.806;-70.704;2023-03-25T08:38:34;11.90;;;3.50;;
249;SDS011;109;19.806;-70.704;2023-03-25T08:41:08;13.60;;;3.70;;
249;SDS011;109;19.806;-70.704;2023-03-25T08:43:34;13.00;;;3.40;;
249;SDS011;109;19.806;-70.704;2023-03-25T08:46:07;7.80;;;3.33;;
249;SDS011;109;19.806;-70.704;2023-03-25T08:48:54;15.07;;;3.90;;
249;SDS011;109;19.806;-70.704;2023-03-25T08:51:28;12.50;;;3.37;;
249;SDS011;109;19.806;-70.704;2023-03-25T08:53:55;9.10;;;3.50;;
249;SDS011;109;19.806;-70.704;2023-03-25T08:56:28;11.87;;;3.10;;
249;SDS011;109;19.806;-70.704;2023-03-25T08:58:54;12.87;;;3.50;;
249;SDS011;109;19.806;-70.704;2023-03-25T09:01:27;11.53;;;3.40;;
249;SDS011;109;19.806;-70.704;2023-03-25T09:03:53;12.50;;;3.63;;
249;SDS011;109;19.806;-70.704;2023-03-25T09:06:28;7.70;;;2.93;;
249;SDS011;109;19.806;-70.704;2023-03-25T09:08:55;9.23;;;2.97;;
249;SDS011;109;19.806;-70.704;2023-03-25T09:11:28;13.50;;;3.13;;
249;SDS011;109;19.806;-70.704;2023-03-25T09:13:55;9.90;;;2.93;;
249;SDS011;109;19.806;-70.704;2023-03-25T09:16:29;14.07;;;3.47;;
249;SDS011;109;19.806;-70.704;2023-03-25T09:19:05;20.27;;;3.90;;
249;SDS011;109;19.806;-70.704;2023-03-25T09:21:32;10.03;;;3.00;;
249;SDS011;109;19.806;-70.704;2023-03-25T09:24:06;14.27;;;3.30;;
249;SDS011;109;19.806;-70.704;2023-03-25T09:26:35;10.23;;;2.97;;
249;SDS011;109;19.806;-70.704;2023-03-25T09:29:08;6.13;;;3.00;;
249;SDS011;109;19.806;-70.704;2023-03-25T09:31:35;14.80;;;4.23;;
249;SDS011;109;19.806;-70.704;2023-03-25T09:34:08;10.03;;;3.60;;
249;SDS011;109;19.806;-70.704;2023-03-25T09:36:35;7.77;;;3.17;;
249;SDS011;109;19.806;-70.704;2023-03-25T09:39:08;8.57;;;2.80;;
249;SDS011;109;19.806;-70.704;2023-03-25T09:44:52;10.00;;;3.43;;
249;SDS011;109;19.806;-70.704;2023-03-25T09:48:01;13.53;;;3.80;;
249;SDS011;109;19.806;-70.704;2023-03-25T09:50:41;17.10;;;4.23;;
249;SDS011;109;19.806;-70.704;2023-03-25T09:53:22;14.63;;;3.60;;
249;SDS011;109;19.806;-70.704;2023-03-25T09:56:00;12.63;;;3.67;;
249;SDS011;109;19.806;-70.704;2023-03-25T09:58:42;10.40;;;3.47;;
249;SDS011;109;19.806;-70.704;2023-03-25T10:22:17;8.30;;;2.80;;
249;SDS011;109;19.806;-70.704;2023-03-25T10:25:08;9.93;;;3.27;;
249;SDS011;109;19.806;-70.704;2023-03-25T10:27:54;12.60;;;3.10;;
249;SDS011;109;19.806;-70.704;2023-03-25T10:48:54;5.40;;;2.83;;
249;SDS011;109;19.806;-70.704;2023-03-25T10:51:22;11.33;;;3.30;;
249;SDS011;109;19.806;-70.704;2023-03-25T10:53:53;5.57;;;3.60;;
249;SDS011;109;19.806;-70.704;2023-03-25T10:57:02;11.40;;;3.57;;
249;SDS011;109;19.806;-70.704;2023-03-25T11:01:59;17.70;;;4.10;;
249;SDS011;109;19.806;-70.704;2023-03-25T11:04:43;11.37;;;3.67;;
249;SDS011;109;19.806;-70.704;2023-03-25T11:07:31;10.23;;;3.47;;
249;SDS011;109;19.806;-70.704;2023-03-25T11:10:25;11.03;;;3.50;;
249;SDS011;109;19.806;-70.704;2023-03-25T11:13:00;8.13;;;3.70;;
249;SDS011;109;19.806;-70.704;2023-03-25T11:15:35;10.20;;;3.80;;
249;SDS011;109;19.806;-70.704;2023-03-25T11:18:12;8.27;;;4.33;;
249;SDS011;109;19.806;-70.704;2023-03-25T11:21:00;9.17;;;4.20;;
249;SDS011;109;19.806;-70.704;2023-03-25T11:23:32;14.00;;;4.50;;
249;SDS011;109;19.806;-70.704;2023-03-25T11:26:04;12.07;;;4.50;;
249;SDS011;109;19.806;-70.704;2023-03-25T11:28:39;9.20;;;3.90;;
249;SDS011;109;19.806;-70.704;2023-03-25T11:31:13;9.83;;;3.07;;
249;SDS011;109;19.806;-70.704;2023-03-25T11:33:45;10.67;;;3.10;;
249;SDS011;109;19.806;-70.704;2023-03-25T11:36:36;9.90;;;3.53;;
249;SDS011;109;19.806;-70.704;2023-03-25T11:41:52;19.57;;;5.33;;
249;SDS011;109;19.806;-70.704;2023-03-25T11:46:53;8.90;;;3.50;;
249;SDS011;109;19.806;-70.704;2023-03-25T11:49:28;6.53;;;2.97;;
249;SDS011;109;19.806;-70.704;2023-03-25T11:52:12;12.20;;;3.83;;
249;SDS011;109;19.806;-70.704;2023-03-25T11:54:43;12.60;;;3.33;;
249;SDS011;109;19.806;-70.704;2023-03-25T11:57:11;12.37;;;3.20;;
249;SDS011;109;19.806;-70.704;2023-03-25T11:59:46;6.60;;;2.90;;
249;SDS011;109;19.806;-70.704;2023-03-25T12:02:29;10.87;;;3.60;;
249;SDS011;109;19.806;-70.704;2023-03-25T12:05:03;9.33;;;3.40;;
249;SDS011;109;19.806;-70.704;2023-03-25T12:07:48;11.30;;;3.37;;
249;SDS011;109;19.806;-70.704;2023-03-25T12:10:39;8.87;;;3.33;;
249;SDS011;109;19.806;-70.704;2023-03-25T12:13:34;13.03;;;3.53;;
249;SDS011;109;19.806;-70.704;2023-03-25T12:16:23;6.73;;;3.10;;
249;SDS011;109;19.806;-70.704;2023-03-25T12:25:04;10.63;;;3.57;;
249;SDS011;109;19.806;-70.704;2023-03-25T12:27:41;8.50;;;3.50;;
249;SDS011;109;19.806;-70.704;2023-03-25T12:30:24;9.10;;;3.23;;
249;SDS011;109;19.806;-70.704;2023-03-25T12:39:33;10.57;;;3.33;;
249;SDS011;109;19.806;-70.704;2023-03-25T12:47:18;11.83;;;3.20;;
249;SDS011;109;19.806;-70.704;2023-03-25T12:50:13;15.13;;;3.90;;
249;SDS011;109;19.806;-70.704;2023-03-25T12:53:38;11.37;;;3.73;;
249;SDS011;109;19.806;-70.704;2023-03-25T13:01:42;16.50;;;3.90;;
249;SDS011;109;19.806;-70.704;2023-03-25T13:07:27;9.03;;;3.47;;
249;SDS011;109;19.806;-70.704;2023-03-25T13:10:11;16.90;;;3.63;;
249;SDS011;109;19.806;-70.704;2023-03-25T13:12:58;9.80;;;3.70;;
249;SDS011;109;19.806;-70.704;2023-03-25T13:15:35;13.57;;;3.40;;
249;SDS011;109;19.806;-70.704;2023-03-25T13:18:30;22.73;;;3.27;;
249;SDS011;109;19.806;-70.704;2023-03-25T13:21:06;17.07;;;3.70;;
249;SDS011;109;19.806;-70.704;2023-03-25T13:23:38;10.80;;;2.67;;
249;SDS011;109;19.806;-70.704;2023-03-25T13:28:43;16.87;;;3.30;;
249;SDS011;109;19.806;-70.704;2023-03-25T13:31:14;9.53;;;3.20;;
249;SDS011;109;19.806;-70.704;2023-03-25T13:33:46;11.07;;;3.30;;
249;SDS011;109;19.806;-70.704;2023-03-25T13:38:56;11.47;;;3.60;;
249;SDS011;109;19.806;-70.704;2023-03-25T13:41:36;13.13;;;2.90;;
249;SDS011;109;19.806;-70.704;2023-03-25T13:44:10;9.17;;;3.23;;
249;SDS011;109;19.806;-70.704;2023-03-25T13:46:52;41.83;;;6.30;;
249;SDS011;109;19.806;-70.704;2023-03-25T13:49:27;38.60;;;4.60;;
249;SDS011;109;19.806;-70.704;2023-03-25T13:52:00;22.23;;;3.80;;
249;SDS011;109;19.806;-70.704;2023-03-25T13:54:29;20.27;;;4.37;;
249;SDS011;109;19.806;-70.704;2023-03-25T14:08:26;18.23;;;4.40;;
249;SDS011;109;19.806;-70.704;2023-03-25T14:11:25;18.13;;;4.30;;
249;SDS011;109;19.806;-70.704;2023-03-25T14:13:56;16.07;;;3.50;;
249;SDS011;109;19.806;-70.704;2023-03-25T14:16:29;15.90;;;3.57;;
249;SDS011;109;19.806;-70.704;2023-03-25T14:19:07;24.83;;;3.70;;
249;SDS011;109;19.806;-70.704;2023-03-25T14:24:15;24.70;;;3.53;;
249;SDS011;109;19.806;-70.704;2023-03-25T14:26:49;15.23;;;4.47;;
249;SDS011;109;19.806;-70.704;2023-03-25T14:29:53;14.90;;;3.70;;
249;SDS011;109;19.806;-70.704;2023-03-25T14:32:32;20.03;;;4.50;;
249;SDS011;109;19.806;-70.704;2023-03-25T14:48:28;24.03;;;4.73;;
249;SDS011;109;19.806;-70.704;2023-03-25T14:51:09;47.93;;;5.70;;
249;SDS011;109;19.806;-70.704;2023-03-25T14:53:46;29.67;;;4.90;;
249;SDS011;109;19.806;-70.704;2023-03-25T14:56:18;20.53;;;4.20;;
249;SDS011;109;19.806;-70.704;2023-03-25T14:58:52;22.90;;;3.93;;
249;SDS011;109;19.806;-70.704;2023-03-25T15:01:25;31.30;;;4.90;;
249;SDS011;109;19.806;-70.704;2023-03-25T15:06:50;26.10;;;4.53;;
249;SDS011;109;19.806;-70.704;2023-03-25T15:09:16;36.47;;;4.50;;
249;SDS011;109;19.806;-70.704;2023-03-25T15:11:53;33.90;;;5.87;;
249;SDS011;109;19.806;-70.704;2023-03-25T15:14:35;31.37;;;5.30;;
249;SDS011;109;19.806;-70.704;2023-03-25T15:17:10;23.17;;;3.80;;
249;SDS011;109;19.806;-70.704;2023-03-25T15:22:34;19.83;;;4.40;;
249;SDS011;109;19.806;-70.704;2023-03-25T15:25:02;18.37;;;3.70;;
249;SDS011;109;19.806;-70.704;2023-03-25T15:31:13;37.00;;;4.97;;
249;SDS011;109;19.806;-70.704;2023-03-25T15:33:16;26.40;;;5.00;;
249;SDS011;109;19.806;-70.704;2023-03-25T15:57:19;28.27;;;5.77;;
249;SDS011;109;19.806;-70.704;2023-03-25T16:05:46;20.37;;;5.07;;
249;SDS011;109;19.806;-70.704;2023-03-25T16:08:18;24.10;;;5.10;;
249;SDS011;109;19.806;-70.704;2023-03-25T16:11:12;36.00;;;5.37;;
249;SDS011;109;19.806;-70.704;2023-03-25T16:13:40;22.00;;;4.50;;
249;SDS011;109;19.806;-70.704;2023-03-25T16:16:07;19.10;;;5.00;;
249;SDS011;109;19.806;-70.704;2023-03-25T16:18:37;28.80;;;5.30;;
249;SDS011;109;19.806;-70.704;2023-03-25T16:21:08;20.07;;;5.27;;
249;SDS011;109;19.806;-70.704;2023-03-25T16:23:35;26.90;;;4.90;;
249;SDS011;109;19.806;-70.704;2023-03-25T16:26:04;19.50;;;4.17;;
249;SDS011;109;19.806;-70.704;2023-03-25T16:28:32;16.50;;;4.37;;
249;SDS011;109;19.806;-70.704;2023-03-25T16:31:03;20.13;;;4.60;;
249;SDS011;109;19.806;-70.704;2023-03-25T16:33:31;20.10;;;4.70;;
249;SDS011;109;19.806;-70.704;2023-03-25T16:36:04;22.73;;;4.53;;
249;SDS011;109;19.806;-70.704;2023-03-25T16:38:34;24.63;;;4.80;;
249;SDS011;109;19.806;-70.704;2023-03-25T16:41:02;26.13;;;5.73;;
249;SDS011;109;19.806;-70.704;2023-03-25T16:43:32;23.13;;;4.77;;
249;SDS011;109;19.806;-70.704;2023-03-25T16:45:59;24.57;;;4.43;;
249;SDS011;109;19.806;-70.704;2023-03-25T16:48:28;26.93;;;5.43;;
249;SDS011;109;19.806;-70.704;2023-03-25T16:51:04;26.10;;;6.40;;
249;SDS011;109;19.806;-70.704;2023-03-25T16:53:33;16.93;;;4.30;;
249;SDS011;109;19.806;-70.704;2023-03-25T16:58:34;30.60;;;5.60;;
249;SDS011;109;19.806;-70.704;2023-03-25T17:01:05;28.30;;;5.07;;
249;SDS011;109;19.806;-70.704;2023-03-25T17:08:56;39.37;;;6.47;;
249;SDS011;109;19.806;-70.704;2023-03-25T17:11:28;28.00;;;5.27;;
249;SDS011;109;19.806;-70.704;2023-03-25T17:13:59;29.63;;;4.83;;
249;SDS011;109;19.806;-70.704;2023-03-25T17:16:31;22.70;;;6.70;;
249;SDS011;109;19.806;-70.704;2023-03-25T17:18:59;34.67;;;5.23;;
249;SDS011;109;19.806;-70.704;2023-03-25T17:21:29;20.23;;;4.63;;
249;SDS011;109;19.806;-70.704;2023-03-25T17:24:04;30.07;;;5.63;;
249;SDS011;109;19.806;-70.704;2023-03-25T17:26:56;38.93;;;6.00;;
249;SDS011;109;19.806;-70.704;2023-03-25T17:29:31;25.60;;;3.90;;
249;SDS011;109;19.806;-70.704;2023-03-25T17:31:58;18.30;;;4.90;;
249;SDS011;109;19.806;-70.704;2023-03-25T17:34:25;26.97;;;5.60;;
249;SDS011;109;19.806;-70.704;2023-03-25T17:36:56;37.40;;;5.13;;
249;SDS011;109;19.806;-70.704;2023-03-25T17:39:31;30.27;;;5.20;;
249;SDS011;109;19.806;-70.704;2023-03-25T17:42:02;26.90;;;4.57;;
249;SDS011;109;19.806;-70.704;2023-03-25T17:44:32;35.40;;;7.07;;
249;SDS011;109;19.806;-70.704;2023-03-25T17:47:11;19.20;;;5.10;;
249;SDS011;109;19.806;-70.704;2023-03-25T17:49:40;36.80;;;6.00;;
249;SDS011;109;19.806;-70.704;2023-03-25T17:52:07;25.63;;;4.80;;
249;SDS011;109;19.806;-70.704;2023-03-25T17:54:34;17.33;;;4.77;;
249;SDS011;109;19.806;-70.704;2023-03-25T17:57:02;24.83;;;5.10;;
249;SDS011;109;19.806;-70.704;2023-03-25T17:59:39;31.50;;;5.73;;
249;SDS011;109;19.806;-70.704;2023-03-25T18:02:12;26.03;;;5.60;;
249;SDS011;109;19.806;-70.704;2023-03-25T18:04:41;25.33;;;5.37;;
249;SDS011;109;19.806;-70.704;2023-03-25T18:07:08;28.40;;;6.20;;
249;SDS011;109;19.806;-70.704;2023-03-25T18:09:34;34.00;;;4.90;;
249;SDS011;109;19.806;-70.704;2023-03-25T18:12:01;25.93;;;5.50;;
249;SDS011;109;19.806;-70.704;2023-03-25T18:14:30;22.93;;;5.77;;
249;SDS011;109;19.806;-70.704;2023-03-25T18:16:56;26.63;;;4.50;;
249;SDS011;109;19.806;-70.704;2023-03-25T18:19:24;23.60;;;4.57;;
249;SDS011;109;19.806;-70.704;2023-03-25T18:21:52;14.13;;;4.53;;
249;SDS011;109;19.806;-70.704;2023-03-25T18:24:19;19.40;;;4.67;;
249;SDS011;109;19.806;-70.704;2023-03-25T18:26:47;24.57;;;4.90;;
249;SDS011;109;19.806;-70.704;2023-03-25T18:29:23;24.67;;;4.67;;
249;SDS011;109;19.806;-70.704;2023-03-25T18:31:53;24.30;;;6.03;;
249;SDS011;109;19.806;-70.704;2023-03-25T18:34:19;23.33;;;5.03;;
249;SDS011;109;19.806;-70.704;2023-03-25T18:36:48;28.40;;;5.33;;
249;SDS011;109;19.806;-70.704;2023-03-25T18:39:16;39.00;;;5.43;;
249;SDS011;109;19.806;-70.704;2023-03-25T18:41:46;23.53;;;5.30;;
249;SDS011;109;19.806;-70.704;2023-03-25T18:44:12;19.63;;;4.20;;
249;SDS011;109;19.806;-70.704;2023-03-25T18:46:40;25.07;;;4.50;;
249;SDS011;109;19.806;-70.704;2023-03-25T18:49:11;28.80;;;4.27;;
249;SDS011;109;19.806;-70.704;2023-03-25T18:51:43;29.27;;;4.63;;
249;SDS011;109;19.806;-70.704;2023-03-25T18:54:12;22.73;;;4.60;;